Seanhickey465’s ATC Tracking Thread - [Closed] @ N/A

Welcome to my ATC tracking thread
I’m training to become an Ifatc controller but don’t feel like I’m ready yet, so why don’t you hop on a test me out! Mostly Irish airports will be open as that what I’m familiar with.
Airport Charts will be linked below before opening.

Airport
EGKK
Gatwick International

ATIS
N/A

Server
Training Server

METAR
EGKK 131420Z 19014KT 9999 BKN015 09/07 Q1005

I hope to see you come in and test my skills! Feedback is appreciated.

Sincerely,
Sean Hickey

  • 1
  • 2
  • 3
  • 4
  • 5
  • 6
  • 7
  • 8
  • 9
  • 10

0 voters

[OPEN] 14:53z

Charts: http://iaip.iaa.ie/iaip/aip_eikn_charts.htm

[Expected Closure] 15:35

10 Minutes untill closure!

[ATC CLOSED] 15:59z

Thank you to the pilots that came out and did a few paterns, feel free to give feedback here or drop me a pm!

Noted, thanks for turning up!

OPEN
EIDW [13:34z]

Charts
http://iaip.iaa.ie/iaip/aip_eidw_charts.htm

CLOSED [14:43]
Thanks to the pilots that came out!

Your title still says open…

1 Like

Oh lordy, thanks I totally forgot! ;)

1 Like

It happens to all of us.

1 Like

Ooh, Dublin! I’ll try to be there! Edit: never mind, it’s closed. I probably should read the title.

1 Like

I always open mainly irish airports… Maybe EINN next?

Cool! I’d love EIWT for some GA

1 Like

Closed, thanks to all that came out!

This topic was automatically closed 90 days after the last reply. New replies are no longer allowed.